sensor_id;sensor_type;location;lat;lon;timestamp;temperature;humidity
63283;DHT22;49407;51.388;0.048;2022-09-09T00:00:38;16.70;99.90
63283;DHT22;49407;51.388;0.048;2022-09-09T00:03:14;16.70;99.90
63283;DHT22;49407;51.388;0.048;2022-09-09T00:11:12;16.70;99.90
63283;DHT22;49407;51.388;0.048;2022-09-09T00:13:47;16.70;99.90
63283;DHT22;49407;51.388;0.048;2022-09-09T00:16:20;16.60;99.90
63283;DHT22;49407;51.388;0.048;2022-09-09T00:19:05;16.60;99.90
63283;DHT22;49407;51.388;0.048;2022-09-09T00:21:39;16.60;99.90
63283;DHT22;49407;51.388;0.048;2022-09-09T00:27:08;16.70;99.90
63283;DHT22;49407;51.388;0.048;2022-09-09T00:32:17;16.70;99.90
63283;DHT22;49407;51.388;0.048;2022-09-09T00:34:52;16.70;99.90
63283;DHT22;49407;51.388;0.048;2022-09-09T00:37:22;16.70;99.90
63283;DHT22;49407;51.388;0.048;2022-09-09T00:39:55;16.80;99.90
63283;DHT22;49407;51.388;0.048;2022-09-09T00:42:41;16.80;99.90
63283;DHT22;49407;51.388;0.048;2022-09-09T00:47:52;16.70;99.90
63283;DHT22;49407;51.388;0.048;2022-09-09T00:50:55;16.70;99.90
63283;DHT22;49407;51.388;0.048;2022-09-09T00:56:20;16.60;99.90
63283;DHT22;49407;51.388;0.048;2022-09-09T01:01:37;16.50;99.90
63283;DHT22;49407;51.388;0.048;2022-09-09T01:04:13;16.50;99.90
63283;DHT22;49407;51.388;0.048;2022-09-09T01:06:43;16.50;99.90
63283;DHT22;49407;51.388;0.048;2022-09-09T01:17:17;16.70;99.90
63283;DHT22;49407;51.388;0.048;2022-09-09T01:20:15;16.70;99.90
63283;DHT22;49407;51.388;0.048;2022-09-09T01:23:02;16.70;99.90
63283;DHT22;49407;51.388;0.048;2022-09-09T01:28:52;16.70;99.90
63283;DHT22;49407;51.388;0.048;2022-09-09T01:31:52;16.70;99.90
63283;DHT22;49407;51.388;0.048;2022-09-09T01:34:22;16.70;99.90
63283;DHT22;49407;51.388;0.048;2022-09-09T01:39:22;16.70;99.90
63283;DHT22;49407;51.388;0.048;2022-09-09T01:41:57;16.80;99.90
63283;DHT22;49407;51.388;0.048;2022-09-09T01:44:25;16.80;99.90
63283;DHT22;49407;51.388;0.048;2022-09-09T01:46:53;16.80;99.90
63283;DHT22;49407;51.388;0.048;2022-09-09T01:49:23;16.80;99.90
63283;DHT22;49407;51.388;0.048;2022-09-09T01:51:52;16.90;99.90
63283;DHT22;49407;51.388;0.048;2022-09-09T01:54:29;16.90;99.90
63283;DHT22;49407;51.388;0.048;2022-09-09T02:00:07;16.80;99.90
63283;DHT22;49407;51.388;0.048;2022-09-09T02:05:38;16.90;99.90
63283;DHT22;49407;51.388;0.048;2022-09-09T02:11:23;16.90;99.90
63283;DHT22;49407;51.388;0.048;2022-09-09T02:14:19;16.90;99.90
63283;DHT22;49407;51.388;0.048;2022-09-09T02:16:56;16.90;99.90
63283;DHT22;49407;51.388;0.048;2022-09-09T02:19:42;16.90;99.90
63283;DHT22;49407;51.388;0.048;2022-09-09T02:22:22;16.90;99.90
63283;DHT22;49407;51.388;0.048;2022-09-09T02:24:53;16.90;99.90
63283;DHT22;49407;51.388;0.048;2022-09-09T02:27:25;16.90;99.90
63283;DHT22;49407;51.388;0.048;2022-09-09T02:29:54;16.90;99.90
63283;DHT22;49407;51.388;0.048;2022-09-09T02:32:47;16.90;99.90
63283;DHT22;49407;51.388;0.048;2022-09-09T02:35:19;16.90;99.90
63283;DHT22;49407;51.388;0.048;2022-09-09T02:37:50;16.90;99.90
63283;DHT22;49407;51.388;0.048;2022-09-09T02:40:18;16.80;99.90
63283;DHT22;49407;51.388;0.048;2022-09-09T02:42:50;16.80;99.90
63283;DHT22;49407;51.388;0.048;2022-09-09T02:45:23;16.80;99.90
63283;DHT22;49407;51.388;0.048;2022-09-09T02:50:33;16.90;99.90
63283;DHT22;49407;51.388;0.048;2022-09-09T02:53:30;16.90;99.90
63283;DHT22;49407;51.388;0.048;2022-09-09T02:56:20;16.90;99.90
63283;DHT22;49407;51.388;0.048;2022-09-09T03:02:12;16.90;99.90
63283;DHT22;49407;51.388;0.048;2022-09-09T03:04:42;16.90;99.90
63283;DHT22;49407;51.388;0.048;2022-09-09T03:07:18;16.90;99.90
63283;DHT22;49407;51.388;0.048;2022-09-09T03:09:50;16.90;99.90
63283;DHT22;49407;51.388;0.048;2022-09-09T03:12:17;16.90;99.90
63283;DHT22;49407;51.388;0.048;2022-09-09T03:14:44;16.90;99.90
63283;DHT22;49407;51.388;0.048;2022-09-09T03:17:13;16.90;99.90
63283;DHT22;49407;51.388;0.048;2022-09-09T03:19:48;16.90;99.90
63283;DHT22;49407;51.388;0.048;2022-09-09T03:22:16;16.90;99.90
63283;DHT22;49407;51.388;0.048;2022-09-09T03:24:44;16.90;99.90
63283;DHT22;49407;51.388;0.048;2022-09-09T03:27:13;16.90;99.90
63283;DHT22;49407;51.388;0.048;2022-09-09T03:29:45;16.90;99.90
63283;DHT22;49407;51.388;0.048;2022-09-09T03:32:19;16.90;99.90
63283;DHT22;49407;51.388;0.048;2022-09-09T03:34:49;16.80;99.90
63283;DHT22;49407;51.388;0.048;2022-09-09T03:37:16;16.90;99.90
63283;DHT22;49407;51.388;0.048;2022-09-09T03:39:45;16.90;99.90
63283;DHT22;49407;51.388;0.048;2022-09-09T03:42:15;16.90;99.90
63283;DHT22;49407;51.388;0.048;2022-09-09T03:44:47;16.80;99.90
63283;DHT22;49407;51.388;0.048;2022-09-09T03:47:21;16.90;99.90
63283;DHT22;49407;51.388;0.048;2022-09-09T03:49:51;16.90;99.90
63283;DHT22;49407;51.388;0.048;2022-09-09T03:52:18;16.90;99.90
63283;DHT22;49407;51.388;0.048;2022-09-09T03:54:51;16.90;99.90
63283;DHT22;49407;51.388;0.048;2022-09-09T03:57:18;16.90;99.90
63283;DHT22;49407;51.388;0.048;2022-09-09T04:02:53;16.90;99.90
63283;DHT22;49407;51.388;0.048;2022-09-09T04:05:23;16.90;99.90
63283;DHT22;49407;51.388;0.048;2022-09-09T04:07:50;16.90;99.90
63283;DHT22;49407;51.388;0.048;2022-09-09T04:13:26;16.80;99.90
63283;DHT22;49407;51.388;0.048;2022-09-09T04:15:57;16.90;99.90
63283;DHT22;49407;51.388;0.048;2022-09-09T04:18:25;16.90;99.90
63283;DHT22;49407;51.388;0.048;2022-09-09T04:20:53;16.90;99.90
63283;DHT22;49407;51.388;0.048;2022-09-09T04:23:26;16.90;99.90
63283;DHT22;49407;51.388;0.048;2022-09-09T04:25:58;16.90;99.90
63283;DHT22;49407;51.388;0.048;2022-09-09T04:28:29;16.90;99.90
63283;DHT22;49407;51.388;0.048;2022-09-09T04:31:08;16.90;99.90
63283;DHT22;49407;51.388;0.048;2022-09-09T04:33:37;16.90;99.90
63283;DHT22;49407;51.388;0.048;2022-09-09T04:36:07;16.90;99.90
63283;DHT22;49407;51.388;0.048;2022-09-09T04:38:36;16.90;99.90
63283;DHT22;49407;51.388;0.048;2022-09-09T04:41:04;16.90;99.90
63283;DHT22;49407;51.388;0.048;2022-09-09T04:43:33;16.90;99.90
63283;DHT22;49407;51.388;0.048;2022-09-09T04:46:03;16.90;99.90
63283;DHT22;49407;51.388;0.048;2022-09-09T04:48:31;16.90;99.90
63283;DHT22;49407;51.388;0.048;2022-09-09T04:51:02;16.90;99.90
63283;DHT22;49407;51.388;0.048;2022-09-09T04:53:32;16.90;99.90
63283;DHT22;49407;51.388;0.048;2022-09-09T04:56:14;16.90;99.90
63283;DHT22;49407;51.388;0.048;2022-09-09T05:01:59;16.90;99.90
63283;DHT22;49407;51.388;0.048;2022-09-09T05:04:27;16.90;99.90
63283;DHT22;49407;51.388;0.048;2022-09-09T05:06:55;16.80;99.90
63283;DHT22;49407;51.388;0.048;2022-09-09T05:09:27;16.80;99.90
63283;DHT22;49407;51.388;0.048;2022-09-09T05:11:55;16.80;99.90
63283;DHT22;49407;51.388;0.048;2022-09-09T05:14:27;16.80;99.90
63283;DHT22;49407;51.388;0.048;2022-09-09T05:16:54;16.80;99.90
63283;DHT22;49407;51.388;0.048;2022-09-09T05:19:24;16.90;99.90
63283;DHT22;49407;51.388;0.048;2022-09-09T05:21:52;16.80;99.90
63283;DHT22;49407;51.388;0.048;2022-09-09T05:24:25;16.90;99.90
63283;DHT22;49407;51.388;0.048;2022-09-09T05:26:55;16.80;99.90
63283;DHT22;49407;51.388;0.048;2022-09-09T05:29:27;16.90;99.90
63283;DHT22;49407;51.388;0.048;2022-09-09T05:31:56;16.90;99.90
63283;DHT22;49407;51.388;0.048;2022-09-09T05:34:23;16.90;99.90
63283;DHT22;49407;51.388;0.048;2022-09-09T05:36:51;16.90;99.90
63283;DHT22;49407;51.388;0.048;2022-09-09T05:39:22;16.90;99.90
63283;DHT22;49407;51.388;0.048;2022-09-09T05:41:50;16.90;99.90
63283;DHT22;49407;51.388;0.048;2022-09-09T05:44:17;16.90;99.90
63283;DHT22;49407;51.388;0.048;2022-09-09T05:46:46;16.90;99.90
63283;DHT22;49407;51.388;0.048;2022-09-09T05:49:16;16.90;99.90
63283;DHT22;49407;51.388;0.048;2022-09-09T05:51:44;16.90;99.90
63283;DHT22;49407;51.388;0.048;2022-09-09T05:54:13;16.90;99.90
63283;DHT22;49407;51.388;0.048;2022-09-09T05:56:46;16.90;99.90
63283;DHT22;49407;51.388;0.048;2022-09-09T05:59:17;16.90;99.90
63283;DHT22;49407;51.388;0.048;2022-09-09T06:01:45;16.90;99.90
63283;DHT22;49407;51.388;0.048;2022-09-09T06:04:26;16.90;99.90
63283;DHT22;49407;51.388;0.048;2022-09-09T06:06:53;16.90;99.90
63283;DHT22;49407;51.388;0.048;2022-09-09T06:09:21;16.90;99.90
63283;DHT22;49407;51.388;0.048;2022-09-09T06:11:49;16.80;99.90
63283;DHT22;49407;51.388;0.048;2022-09-09T06:14:16;16.80;99.90
63283;DHT22;49407;51.388;0.048;2022-09-09T06:16:47;16.90;99.90
63283;DHT22;49407;51.388;0.048;2022-09-09T06:19:22;16.90;99.90
63283;DHT22;49407;51.388;0.048;2022-09-09T06:21:55;16.90;99.90
63283;DHT22;49407;51.388;0.048;2022-09-09T06:24:22;16.90;99.90
63283;DHT22;49407;51.388;0.048;2022-09-09T06:26:50;16.90;99.90
63283;DHT22;49407;51.388;0.048;2022-09-09T06:29:25;17.00;99.90
63283;DHT22;49407;51.388;0.048;2022-09-09T06:31:52;16.90;99.90
63283;DHT22;49407;51.388;0.048;2022-09-09T06:34:21;17.00;99.90
63283;DHT22;49407;51.388;0.048;2022-09-09T06:36:56;17.00;99.90
63283;DHT22;49407;51.388;0.048;2022-09-09T06:42:35;17.00;99.90
63283;DHT22;49407;51.388;0.048;2022-09-09T06:45:23;17.00;99.90
63283;DHT22;49407;51.388;0.048;2022-09-09T06:47:55;17.00;99.90
63283;DHT22;49407;51.388;0.048;2022-09-09T06:50:42;17.00;99.90
63283;DHT22;49407;51.388;0.048;2022-09-09T06:53:09;17.00;99.90
63283;DHT22;49407;51.388;0.048;2022-09-09T06:55:37;17.10;99.90
63283;DHT22;49407;51.388;0.048;2022-09-09T06:58:08;17.10;99.90
63283;DHT22;49407;51.388;0.048;2022-09-09T07:00:36;17.10;99.90
63283;DHT22;49407;51.388;0.048;2022-09-09T07:03:05;17.10;99.90
63283;DHT22;49407;51.388;0.048;2022-09-09T07:05:32;17.10;99.90
63283;DHT22;49407;51.388;0.048;2022-09-09T07:07:59;17.10;99.90
63283;DHT22;49407;51.388;0.048;2022-09-09T07:10:46;17.10;99.90
63283;DHT22;49407;51.388;0.048;2022-09-09T07:13:14;17.10;99.90
63283;DHT22;49407;51.388;0.048;2022-09-09T07:15:42;17.20;99.90
63283;DHT22;49407;51.388;0.048;2022-09-09T07:18:10;17.20;99.90
63283;DHT22;49407;51.388;0.048;2022-09-09T07:20:37;17.30;99.90
63283;DHT22;49407;51.388;0.048;2022-09-09T07:23:05;17.40;99.90
63283;DHT22;49407;51.388;0.048;2022-09-09T07:25:32;17.40;99.90
63283;DHT22;49407;51.388;0.048;2022-09-09T07:27:59;17.40;99.90
63283;DHT22;49407;51.388;0.048;2022-09-09T07:30:28;17.50;99.90
63283;DHT22;49407;51.388;0.048;2022-09-09T07:32:57;17.60;99.90
63283;DHT22;49407;51.388;0.048;2022-09-09T07:35:24;17.60;99.90
63283;DHT22;49407;51.388;0.048;2022-09-09T07:37:51;17.70;99.90
63283;DHT22;49407;51.388;0.048;2022-09-09T07:40:19;17.70;99.90
63283;DHT22;49407;51.388;0.048;2022-09-09T07:42:48;17.80;99.90
63283;DHT22;49407;51.388;0.048;2022-09-09T07:45:16;17.90;99.90
63283;DHT22;49407;51.388;0.048;2022-09-09T07:47:43;17.90;99.90
63283;DHT22;49407;51.388;0.048;2022-09-09T07:50:31;17.90;99.90
63283;DHT22;49407;51.388;0.048;2022-09-09T07:52:58;17.90;99.90
63283;DHT22;49407;51.388;0.048;2022-09-09T07:55:26;17.90;99.90
63283;DHT22;49407;51.388;0.048;2022-09-09T07:57:53;17.80;99.90
63283;DHT22;49407;51.388;0.048;2022-09-09T08:00:25;17.80;99.90
63283;DHT22;49407;51.388;0.048;2022-09-09T08:02:57;17.80;99.90
63283;DHT22;49407;51.388;0.048;2022-09-09T08:05:25;17.80;99.90
63283;DHT22;49407;51.388;0.048;2022-09-09T08:07:53;17.80;99.90
63283;DHT22;49407;51.388;0.048;2022-09-09T08:10:41;17.80;99.90
63283;DHT22;49407;51.388;0.048;2022-09-09T08:13:09;17.80;99.90
63283;DHT22;49407;51.388;0.048;2022-09-09T08:15:46;17.80;99.90
63283;DHT22;49407;51.388;0.048;2022-09-09T08:18:16;17.80;99.90
63283;DHT22;49407;51.388;0.048;2022-09-09T08:20:44;17.90;99.90
63283;DHT22;49407;51.388;0.048;2022-09-09T08:23:11;18.00;99.90
63283;DHT22;49407;51.388;0.048;2022-09-09T08:25:38;18.00;99.90
63283;DHT22;49407;51.388;0.048;2022-09-09T08:28:05;18.20;99.90
63283;DHT22;49407;51.388;0.048;2022-09-09T08:30:33;18.30;99.90
63283;DHT22;49407;51.388;0.048;2022-09-09T08:33:00;18.50;99.90
63283;DHT22;49407;51.388;0.048;2022-09-09T08:35:28;18.60;99.90
63283;DHT22;49407;51.388;0.048;2022-09-09T08:38:00;18.60;99.90
63283;DHT22;49407;51.388;0.048;2022-09-09T08:43:33;18.80;99.90
63283;DHT22;49407;51.388;0.048;2022-09-09T08:46:09;18.90;99.90
63283;DHT22;49407;51.388;0.048;2022-09-09T08:48:58;19.10;99.90
63283;DHT22;49407;51.388;0.048;2022-09-09T08:51:30;19.30;99.90
63283;DHT22;49407;51.388;0.048;2022-09-09T08:54:00;19.40;99.90
63283;DHT22;49407;51.388;0.048;2022-09-09T08:56:31;19.40;99.90
63283;DHT22;49407;51.388;0.048;2022-09-09T08:59:01;19.40;99.90
63283;DHT22;49407;51.388;0.048;2022-09-09T09:02:07;19.40;99.90
63283;DHT22;49407;51.388;0.048;2022-09-09T09:04:52;19.30;99.90
63283;DHT22;49407;51.388;0.048;2022-09-09T09:10:50;19.20;99.90
63283;DHT22;49407;51.388;0.048;2022-09-09T09:13:30;19.00;99.90
63283;DHT22;49407;51.388;0.048;2022-09-09T09:16:26;18.90;99.90
63283;DHT22;49407;51.388;0.048;2022-09-09T09:19:01;18.80;99.90
63283;DHT22;49407;51.388;0.048;2022-09-09T09:21:42;18.80;99.90
63283;DHT22;49407;51.388;0.048;2022-09-09T09:24:31;18.70;99.90
63283;DHT22;49407;51.388;0.048;2022-09-09T09:27:13;18.70;99.90
63283;DHT22;49407;51.388;0.048;2022-09-09T09:29:45;18.80;99.90
63283;DHT22;49407;51.388;0.048;2022-09-09T09:32:34;18.80;99.90
63283;DHT22;49407;51.388;0.048;2022-09-09T09:35:10;18.90;99.90
63283;DHT22;49407;51.388;0.048;2022-09-09T09:37:41;18.90;99.90
63283;DHT22;49407;51.388;0.048;2022-09-09T09:40:31;19.00;99.90
63283;DHT22;49407;51.388;0.048;2022-09-09T09:43:00;19.00;99.90
63283;DHT22;49407;51.388;0.048;2022-09-09T09:45:49;19.00;99.90
63283;DHT22;49407;51.388;0.048;2022-09-09T09:48:36;19.10;99.90
63283;DHT22;49407;51.388;0.048;2022-09-09T09:51:12;19.40;99.90
63283;DHT22;49407;51.388;0.048;2022-09-09T09:53:43;19.60;99.90
63283;DHT22;49407;51.388;0.048;2022-09-09T09:56:13;19.80;99.90
63283;DHT22;49407;51.388;0.048;2022-09-09T10:02:25;20.10;99.90
63283;DHT22;49407;51.388;0.048;2022-09-09T10:07:41;20.00;99.90
63283;DHT22;49407;51.388;0.048;2022-09-09T10:10:55;20.00;99.90
63283;DHT22;49407;51.388;0.048;2022-09-09T10:13:33;20.00;99.90
63283;DHT22;49407;51.388;0.048;2022-09-09T10:17:10;20.00;99.90
63283;DHT22;49407;51.388;0.048;2022-09-09T10:22:31;20.00;99.90
63283;DHT22;49407;51.388;0.048;2022-09-09T10:36:23;20.60;99.90
63283;DHT22;49407;51.388;0.048;2022-09-09T10:39:06;20.60;99.90
63283;DHT22;49407;51.388;0.048;2022-09-09T10:41:58;20.40;99.90
63283;DHT22;49407;51.388;0.048;2022-09-09T10:44:50;20.40;99.90
63283;DHT22;49407;51.388;0.048;2022-09-09T10:50:29;20.50;99.90
63283;DHT22;49407;51.388;0.048;2022-09-09T10:56:12;20.90;99.90
63283;DHT22;49407;51.388;0.048;2022-09-09T10:58:49;20.80;99.90
63283;DHT22;49407;51.388;0.048;2022-09-09T11:01:24;20.80;99.90
63283;DHT22;49407;51.388;0.048;2022-09-09T11:04:09;20.70;99.90
63283;DHT22;49407;51.388;0.048;2022-09-09T11:06:41;20.80;99.90
63283;DHT22;49407;51.388;0.048;2022-09-09T11:09:17;20.70;99.90
63283;DHT22;49407;51.388;0.048;2022-09-09T11:11:54;20.40;99.90
63283;DHT22;49407;51.388;0.048;2022-09-09T11:14:22;20.20;99.90
63283;DHT22;49407;51.388;0.048;2022-09-09T11:17:02;20.10;99.90
63283;DHT22;49407;51.388;0.048;2022-09-09T11:19:39;20.10;99.90
63283;DHT22;49407;51.388;0.048;2022-09-09T11:22:37;20.10;99.90
63283;DHT22;49407;51.388;0.048;2022-09-09T11:25:40;20.10;99.90
63283;DHT22;49407;51.388;0.048;2022-09-09T11:30:50;20.50;99.90
63283;DHT22;49407;51.388;0.048;2022-09-09T11:36:38;20.60;99.90
63283;DHT22;49407;51.388;0.048;2022-09-09T11:41:51;20.30;99.90
63283;DHT22;49407;51.388;0.048;2022-09-09T11:44:29;20.10;99.90
63283;DHT22;49407;51.388;0.048;2022-09-09T11:46:57;19.90;99.90
63283;DHT22;49407;51.388;0.048;2022-09-09T11:49:42;19.90;99.90
63283;DHT22;49407;51.388;0.048;2022-09-09T11:52:21;19.90;99.90
63283;DHT22;49407;51.388;0.048;2022-09-09T11:54:49;19.80;99.90
63283;DHT22;49407;51.388;0.048;2022-09-09T11:57:33;19.80;99.90
63283;DHT22;49407;51.388;0.048;2022-09-09T12:00:02;19.80;99.90
63283;DHT22;49407;51.388;0.048;2022-09-09T12:02:48;19.90;99.90
63283;DHT22;49407;51.388;0.048;2022-09-09T12:05:16;20.00;99.90
63283;DHT22;49407;51.388;0.048;2022-09-09T12:07:49;20.20;99.90
63283;DHT22;49407;51.388;0.048;2022-09-09T12:10:28;20.40;99.90
63283;DHT22;49407;51.388;0.048;2022-09-09T12:13:17;20.60;99.90
63283;DHT22;49407;51.388;0.048;2022-09-09T12:15:53;20.80;99.90
63283;DHT22;49407;51.388;0.048;2022-09-09T12:18:37;21.00;99.90
63283;DHT22;49407;51.388;0.048;2022-09-09T12:24:00;20.80;99.90
63283;DHT22;49407;51.388;0.048;2022-09-09T12:26:34;20.70;99.90
63283;DHT22;49407;51.388;0.048;2022-09-09T12:29:32;20.80;99.90
63283;DHT22;49407;51.388;0.048;2022-09-09T12:32:10;21.20;99.90
63283;DHT22;49407;51.388;0.048;2022-09-09T12:34:53;21.70;99.90
63283;DHT22;49407;51.388;0.048;2022-09-09T12:37:38;22.20;99.90
63283;DHT22;49407;51.388;0.048;2022-09-09T12:40:22;23.00;99.90
63283;DHT22;49407;51.388;0.048;2022-09-09T12:42:50;23.70;99.90
63283;DHT22;49407;51.388;0.048;2022-09-09T12:45:22;24.40;99.90
63283;DHT22;49407;51.388;0.048;2022-09-09T12:48:00;25.00;99.90
63283;DHT22;49407;51.388;0.048;2022-09-09T12:50:33;25.20;99.00
63283;DHT22;49407;51.388;0.048;2022-09-09T12:53:24;25.10;98.50
63283;DHT22;49407;51.388;0.048;2022-09-09T12:55:57;24.90;97.60
63283;DHT22;49407;51.388;0.048;2022-09-09T12:58:26;24.60;97.20
63283;DHT22;49407;51.388;0.048;2022-09-09T13:00:56;24.40;98.40
63283;DHT22;49407;51.388;0.048;2022-09-09T13:03:23;24.70;97.90
63283;DHT22;49407;51.388;0.048;2022-09-09T13:05:52;24.80;97.20
63283;DHT22;49407;51.388;0.048;2022-09-09T13:08:20;24.50;96.70
63283;DHT22;49407;51.388;0.048;2022-09-09T13:10:54;24.50;96.80
63283;DHT22;49407;51.388;0.048;2022-09-09T13:13:34;24.60;96.00
63283;DHT22;49407;51.388;0.048;2022-09-09T13:16:03;24.70;96.60
63283;DHT22;49407;51.388;0.048;2022-09-09T13:18:34;24.80;96.60
63283;DHT22;49407;51.388;0.048;2022-09-09T13:21:02;25.30;96.30
63283;DHT22;49407;51.388;0.048;2022-09-09T13:23:32;26.00;95.50
63283;DHT22;49407;51.388;0.048;2022-09-09T13:26:01;26.90;93.60
63283;DHT22;49407;51.388;0.048;2022-09-09T13:28:30;27.30;92.30
63283;DHT22;49407;51.388;0.048;2022-09-09T13:31:02;27.50;92.40
63283;DHT22;49407;51.388;0.048;2022-09-09T13:33:32;27.80;91.60
63283;DHT22;49407;51.388;0.048;2022-09-09T13:36:05;28.10;92.00
63283;DHT22;49407;51.388;0.048;2022-09-09T13:38:39;28.30;90.80
63283;DHT22;49407;51.388;0.048;2022-09-09T13:41:08;28.40;88.70
63283;DHT22;49407;51.388;0.048;2022-09-09T13:43:45;28.10;85.70
63283;DHT22;49407;51.388;0.048;2022-09-09T13:46:40;27.80;88.20
63283;DHT22;49407;51.388;0.048;2022-09-09T13:51:42;27.50;89.10
63283;DHT22;49407;51.388;0.048;2022-09-09T13:54:11;27.50;90.30
63283;DHT22;49407;51.388;0.048;2022-09-09T13:56:40;27.30;88.70
63283;DHT22;49407;51.388;0.048;2022-09-09T13:59:12;26.80;90.00
63283;DHT22;49407;51.388;0.048;2022-09-09T14:01:39;26.30;90.50
63283;DHT22;49407;51.388;0.048;2022-09-09T14:04:07;26.20;89.20
63283;DHT22;49407;51.388;0.048;2022-09-09T14:06:35;26.00;90.20
63283;DHT22;49407;51.388;0.048;2022-09-09T14:09:15;25.50;88.50
63283;DHT22;49407;51.388;0.048;2022-09-09T14:11:43;25.10;90.10
63283;DHT22;49407;51.388;0.048;2022-09-09T14:14:10;25.00;90.50
63283;DHT22;49407;51.388;0.048;2022-09-09T14:16:37;25.10;90.90
63283;DHT22;49407;51.388;0.048;2022-09-09T14:19:04;25.10;89.70
63283;DHT22;49407;51.388;0.048;2022-09-09T14:21:31;25.30;90.50
63283;DHT22;49407;51.388;0.048;2022-09-09T14:23:59;25.80;89.70
63283;DHT22;49407;51.388;0.048;2022-09-09T14:26:26;26.20;88.30
63283;DHT22;49407;51.388;0.048;2022-09-09T14:28:53;26.00;86.00
63283;DHT22;49407;51.388;0.048;2022-09-09T14:31:22;25.80;85.70
63283;DHT22;49407;51.388;0.048;2022-09-09T14:33:50;26.00;83.60
63283;DHT22;49407;51.388;0.048;2022-09-09T14:36:17;26.00;83.30
63283;DHT22;49407;51.388;0.048;2022-09-09T14:38:48;25.90;83.00
63283;DHT22;49407;51.388;0.048;2022-09-09T14:41:17;25.40;83.60
63283;DHT22;49407;51.388;0.048;2022-09-09T14:43:45;25.10;85.20
63283;DHT22;49407;51.388;0.048;2022-09-09T14:46:15;25.00;85.30
63283;DHT22;49407;51.388;0.048;2022-09-09T14:51:49;25.20;84.90
63283;DHT22;49407;51.388;0.048;2022-09-09T14:54:16;24.80;84.80
63283;DHT22;49407;51.388;0.048;2022-09-09T14:56:43;24.40;85.40
63283;DHT22;49407;51.388;0.048;2022-09-09T15:02:20;23.70;88.80
63283;DHT22;49407;51.388;0.048;2022-09-09T15:04:47;23.50;90.30
63283;DHT22;49407;51.388;0.048;2022-09-09T15:07:14;23.40;91.10
63283;DHT22;49407;51.388;0.048;2022-09-09T15:09:42;23.30;91.80
63283;DHT22;49407;51.388;0.048;2022-09-09T15:12:09;23.20;91.20
63283;DHT22;49407;51.388;0.048;2022-09-09T15:14:35;23.20;91.20
63283;DHT22;49407;51.388;0.048;2022-09-09T15:17:02;23.20;90.80
63283;DHT22;49407;51.388;0.048;2022-09-09T15:19:31;23.20;91.30
63283;DHT22;49407;51.388;0.048;2022-09-09T15:21:58;23.20;91.80
63283;DHT22;49407;51.388;0.048;2022-09-09T15:24:26;23.20;91.90
63283;DHT22;49407;51.388;0.048;2022-09-09T15:26:53;23.10;91.60
63283;DHT22;49407;51.388;0.048;2022-09-09T15:29:21;23.00;91.60
63283;DHT22;49407;51.388;0.048;2022-09-09T15:31:48;22.80;91.60
63283;DHT22;49407;51.388;0.048;2022-09-09T15:34:15;22.70;91.50
63283;DHT22;49407;51.388;0.048;2022-09-09T15:36:44;22.50;91.90
63283;DHT22;49407;51.388;0.048;2022-09-09T15:39:17;22.30;92.30
63283;DHT22;49407;51.388;0.048;2022-09-09T15:41:48;22.10;92.20
63283;DHT22;49407;51.388;0.048;2022-09-09T15:44:15;22.00;92.70
63283;DHT22;49407;51.388;0.048;2022-09-09T15:46:44;21.90;92.70
63283;DHT22;49407;51.388;0.048;2022-09-09T15:49:23;21.80;92.70
63283;DHT22;49407;51.388;0.048;2022-09-09T15:51:57;21.70;93.30
63283;DHT22;49407;51.388;0.048;2022-09-09T15:54:25;21.70;93.80
63283;DHT22;49407;51.388;0.048;2022-09-09T15:56:55;21.80;93.80
63283;DHT22;49407;51.388;0.048;2022-09-09T15:59:24;21.90;93.60
63283;DHT22;49407;51.388;0.048;2022-09-09T16:01:52;21.90;94.10
63283;DHT22;49407;51.388;0.048;2022-09-09T16:04:19;21.80;94.20
63283;DHT22;49407;51.388;0.048;2022-09-09T16:07:00;21.80;94.40
63283;DHT22;49407;51.388;0.048;2022-09-09T16:12:34;21.50;94.20
63283;DHT22;49407;51.388;0.048;2022-09-09T16:15:01;21.40;93.90
63283;DHT22;49407;51.388;0.048;2022-09-09T16:17:28;21.20;93.90
63283;DHT22;49407;51.388;0.048;2022-09-09T16:19:55;20.80;94.70
63283;DHT22;49407;51.388;0.048;2022-09-09T16:22:24;20.40;95.70
63283;DHT22;49407;51.388;0.048;2022-09-09T16:24:51;20.20;96.80
63283;DHT22;49407;51.388;0.048;2022-09-09T16:27:18;20.00;97.70
63283;DHT22;49407;51.388;0.048;2022-09-09T16:29:46;20.00;98.60
63283;DHT22;49407;51.388;0.048;2022-09-09T16:32:13;20.00;99.30
63283;DHT22;49407;51.388;0.048;2022-09-09T16:34:39;20.10;99.60
63283;DHT22;49407;51.388;0.048;2022-09-09T16:37:06;20.10;99.90
63283;DHT22;49407;51.388;0.048;2022-09-09T16:39:35;20.20;99.90
63283;DHT22;49407;51.388;0.048;2022-09-09T16:42:02;20.20;99.90
63283;DHT22;49407;51.388;0.048;2022-09-09T16:44:31;20.20;99.90
63283;DHT22;49407;51.388;0.048;2022-09-09T16:46:58;20.20;99.90
63283;DHT22;49407;51.388;0.048;2022-09-09T16:49:27;20.10;99.90
63283;DHT22;49407;51.388;0.048;2022-09-09T16:51:57;20.10;99.90
63283;DHT22;49407;51.388;0.048;2022-09-09T16:54:24;20.10;99.90
63283;DHT22;49407;51.388;0.048;2022-09-09T16:56:53;20.10;99.90
63283;DHT22;49407;51.388;0.048;2022-09-09T16:59:21;20.10;99.90
63283;DHT22;49407;51.388;0.048;2022-09-09T17:01:53;20.10;99.90
63283;DHT22;49407;51.388;0.048;2022-09-09T17:04:26;20.20;99.90
63283;DHT22;49407;51.388;0.048;2022-09-09T17:06:54;20.30;99.90
63283;DHT22;49407;51.388;0.048;2022-09-09T17:09:48;20.40;99.90
63283;DHT22;49407;51.388;0.048;2022-09-09T17:12:15;20.30;99.90
63283;DHT22;49407;51.388;0.048;2022-09-09T17:14:42;20.40;99.90
63283;DHT22;49407;51.388;0.048;2022-09-09T17:17:09;20.40;99.90
63283;DHT22;49407;51.388;0.048;2022-09-09T17:19:58;20.40;99.90
63283;DHT22;49407;51.388;0.048;2022-09-09T17:22:26;20.30;99.90
63283;DHT22;49407;51.388;0.048;2022-09-09T17:24:53;20.30;99.90
63283;DHT22;49407;51.388;0.048;2022-09-09T17:27:20;20.20;99.90
63283;DHT22;49407;51.388;0.048;2022-09-09T17:29:48;20.10;99.90
63283;DHT22;49407;51.388;0.048;2022-09-09T17:32:15;20.10;99.90
63283;DHT22;49407;51.388;0.048;2022-09-09T17:34:42;20.00;99.90
63283;DHT22;49407;51.388;0.048;2022-09-09T17:37:08;19.90;99.90
63283;DHT22;49407;51.388;0.048;2022-09-09T17:39:39;19.90;99.90
63283;DHT22;49407;51.388;0.048;2022-09-09T17:42:06;19.80;99.90
63283;DHT22;49407;51.388;0.048;2022-09-09T17:44:36;19.80;99.90
63283;DHT22;49407;51.388;0.048;2022-09-09T17:47:03;19.70;99.90
63283;DHT22;49407;51.388;0.048;2022-09-09T17:49:31;19.70;99.90
63283;DHT22;49407;51.388;0.048;2022-09-09T17:51:58;19.60;99.90
63283;DHT22;49407;51.388;0.048;2022-09-09T17:54:25;19.50;99.90
63283;DHT22;49407;51.388;0.048;2022-09-09T17:56:52;19.40;99.90
63283;DHT22;49407;51.388;0.048;2022-09-09T17:59:21;19.40;99.90
63283;DHT22;49407;51.388;0.048;2022-09-09T18:01:48;19.40;99.90